Time;durP1;ratioP1;P1;durP2;ratioP2;P2;SDS_P1;SDS_P2;PMS_P1;PMS_P2;Temp;Humidity;BMP_temperature;BMP_pressure;BME280_temperature;BME280_humidity;BME280_pressure;Samples;Min_cycle;Max_cycle;Signal;HPM_P1;HPM_P2
2021/09/22 00:01:43;;;;;;;2.25;2.05;;;;;;;;;;4699698;30;20214;-85
2021/09/22 00:04:11;;;;;;;2.90;2.60;;;;;;;;;;4700214;30;20203;-85
2021/09/22 00:06:40;;;;;;;6.10;2.53;;;;;;;;;;4694786;30;20230;-86
2021/09/22 00:09:08;;;;;;;3.13;2.83;;;;;;;;;;4682872;30;20238;-85
2021/09/22 00:11:39;;;;;;;2.58;2.38;;;;;;;;;;4682627;30;20316;-85
2021/09/22 00:14:08;;;;;;;2.40;2.10;;;;;;;;;;4683051;30;20207;-85
2021/09/22 00:16:35;;;;;;;2.90;2.70;;;;;;;;;;4682151;30;20675;-85
2021/09/22 00:19:04;;;;;;;2.42;2.22;;;;;;;;;;4682414;30;20249;-84
2021/09/22 00:21:31;;;;;;;2.03;1.83;;;;;;;;;;4682180;30;20207;-84
2021/09/22 00:23:58;;;;;;;4.75;2.80;;;;;;;;;;4682623;30;20206;-85
2021/09/22 00:26:26;;;;;;;3.47;2.75;;;;;;;;;;4684737;30;20214;-85
2021/09/22 00:28:56;;;;;;;2.50;2.30;;;;;;;;;;4682166;30;20619;-85
2021/09/22 00:31:24;;;;;;;2.88;2.55;;;;;;;;;;4682423;30;20215;-85
2021/09/22 00:33:53;;;;;;;2.95;2.10;;;;;;;;;;4682519;30;20210;-85
2021/09/22 00:36:22;;;;;;;2.10;1.92;;;;;;;;;;4682376;30;20592;-85
2021/09/22 00:39:00;;;;;;;2.40;2.22;;;;;;;;;;4695347;30;20237;-86
2021/09/22 00:41:28;;;;;;;2.50;2.30;;;;;;;;;;4699324;30;20218;-84
2021/09/22 00:44:05;;;;;;;2.78;2.53;;;;;;;;;;4699680;30;20195;-86
2021/09/22 00:46:33;;;;;;;2.67;2.47;;;;;;;;;;4699628;30;20195;-85
2021/09/22 00:49:03;;;;;;;2.75;2.10;;;;;;;;;;4699783;30;20240;-85
2021/09/22 00:51:30;;;;;;;2.45;2.25;;;;;;;;;;4699564;30;20209;-86
2021/09/22 00:54:06;;;;;;;2.35;2.15;;;;;;;;;;4699555;30;20215;-86
2021/09/22 00:56:39;;;;;;;2.22;1.88;;;;;;;;;;4703224;30;20201;-86
2021/09/22 00:59:09;;;;;;;1.98;1.75;;;;;;;;;;4703094;30;20230;-85
2021/09/22 01:01:37;;;;;;;2.38;2.13;;;;;;;;;;4703127;30;20203;-85
2021/09/22 01:04:05;;;;;;;2.08;1.90;;;;;;;;;;4703054;30;20203;-84
2021/09/22 01:06:32;;;;;;;2.65;2.45;;;;;;;;;;4702915;30;20215;-84
2021/09/22 01:09:00;;;;;;;2.60;2.40;;;;;;;;;;4702577;30;20234;-84
2021/09/22 01:11:33;;;;;;;2.88;2.55;;;;;;;;;;4688949;30;20207;-84
2021/09/22 01:14:01;;;;;;;2.63;2.28;;;;;;;;;;4690539;30;20198;-85
2021/09/22 01:16:32;;;;;;;2.25;2.05;;;;;;;;;;4702916;30;20558;-85
2021/09/22 01:19:00;;;;;;;2.08;1.90;;;;;;;;;;4702615;30;20735;-85
2021/09/22 01:21:30;;;;;;;3.17;2.88;;;;;;;;;;4702698;30;20201;-86
2021/09/22 01:23:57;;;;;;;2.70;2.50;;;;;;;;;;4700204;30;20218;-84
2021/09/22 01:26:59;;;;;;;2.40;2.20;;;;;;;;;;4702841;30;20219;-85
2021/09/22 01:29:26;;;;;;;3.95;2.55;;;;;;;;;;4707020;30;20225;-83
2021/09/22 01:31:53;;;;;;;2.65;2.45;;;;;;;;;;4719904;30;20213;-84
2021/09/22 01:34:58;;;;;;;3.70;2.15;;;;;;;;;;4719916;30;20209;-84
2021/09/22 01:37:29;;;;;;;1.75;1.55;;;;;;;;;;4719646;30;20225;-84
2021/09/22 01:40:09;;;;;;;1.80;1.70;;;;;;;;;;4718595;30;20445;-83
2021/09/22 01:42:37;;;;;;;2.10;1.90;;;;;;;;;;4702727;30;20253;-84
2021/09/22 01:45:06;;;;;;;2.05;1.95;;;;;;;;;;4702351;30;20201;-83
2021/09/22 01:47:35;;;;;;;2.50;2.20;;;;;;;;;;4701705;30;20231;-83
2021/09/22 01:50:12;;;;;;;1.95;1.85;;;;;;;;;;4701517;30;20213;-84
2021/09/22 01:52:43;;;;;;;1.60;1.50;;;;;;;;;;4684925;30;20200;-84
2021/09/22 01:55:18;;;;;;;2.40;2.00;;;;;;;;;;4684825;30;20659;-85
2021/09/22 01:58:04;;;;;;;2.95;2.67;;;;;;;;;;4685207;30;20235;-85
2021/09/22 02:00:39;;;;;;;2.30;2.10;;;;;;;;;;4685019;30;20222;-84
2021/09/22 02:03:23;;;;;;;2.40;2.20;;;;;;;;;;4684935;30;20210;-84
2021/09/22 02:05:53;;;;;;;2.42;2.22;;;;;;;;;;4700651;30;20214;-84
2021/09/22 02:08:32;;;;;;;2.17;2.00;;;;;;;;;;4701396;30;20382;-84
2021/09/22 02:11:01;;;;;;;1.90;1.80;;;;;;;;;;4701393;30;20215;-84
2021/09/22 02:13:30;;;;;;;1.60;1.50;;;;;;;;;;4702297;30;20198;-84
2021/09/22 02:15:57;;;;;;;2.30;2.10;;;;;;;;;;4702072;30;20206;-84
2021/09/22 02:18:25;;;;;;;2.50;2.30;;;;;;;;;;4701919;30;20234;-85
2021/09/22 02:20:55;;;;;;;2.28;2.00;;;;;;;;;;4702158;30;20222;-84
2021/09/22 02:23:25;;;;;;;2.30;1.75;;;;;;;;;;4702136;30;20199;-85
2021/09/22 02:26:30;;;;;;;2.20;2.00;;;;;;;;;;4701743;30;20210;-85
2021/09/22 02:29:59;;;;;;;2.05;1.95;;;;;;;;;;4701726;30;20226;-85
2021/09/22 02:32:29;;;;;;;2.30;2.10;;;;;;;;;;4701882;30;20663;-85
2021/09/22 02:35:33;;;;;;;2.17;2.08;;;;;;;;;;4701766;30;20265;-85
2021/09/22 02:38:19;;;;;;;1.85;1.75;;;;;;;;;;4689481;30;20230;-85
2021/09/22 02:41:05;;;;;;;2.20;1.92;;;;;;;;;;4701099;30;20222;-84
2021/09/22 02:44:05;;;;;;;2.65;2.45;;;;;;;;;;4701355;30;20447;-84
2021/09/22 02:46:41;;;;;;;2.65;2.45;;;;;;;;;;4687245;30;20219;-85
2021/09/22 02:49:22;;;;;;;2.95;2.67;;;;;;;;;;4684148;30;20577;-84
2021/09/22 02:52:32;;;;;;;2.65;2.45;;;;;;;;;;4684221;30;20668;-84
2021/09/22 02:55:04;;;;;;;1.95;1.85;;;;;;;;;;4692144;30;20201;-84
2021/09/22 02:57:45;;;;;;;2.13;2.00;;;;;;;;;;4701288;30;20245;-85
2021/09/22 03:00:17;;;;;;;2.22;2.03;;;;;;;;;;4701042;30;20195;-85
2021/09/22 03:03:45;;;;;;;2.47;2.10;;;;;;;;;;4701270;30;20210;-86
2021/09/22 03:07:03;;;;;;;2.65;2.45;;;;;;;;;;4701154;30;20219;-86
2021/09/22 03:10:20;;;;;;;2.80;2.03;;;;;;;;;;4701081;30;20234;-85
2021/09/22 03:12:55;;;;;;;1.45;1.35;;;;;;;;;;4700984;30;20227;-85
2021/09/22 03:15:26;;;;;;;2.25;1.98;;;;;;;;;;4701064;30;20210;-85
2021/09/22 03:18:07;;;;;;;1.90;1.80;;;;;;;;;;4700483;30;20727;-85
2021/09/22 03:20:34;;;;;;;2.38;1.92;;;;;;;;;;4701156;30;20224;-84
2021/09/22 03:23:10;;;;;;;2.03;1.92;;;;;;;;;;4701075;30;20195;-85
2021/09/22 03:26:10;;;;;;;2.15;1.80;;;;;;;;;;4700981;30;20214;-86
2021/09/22 03:28:49;;;;;;;2.00;1.90;;;;;;;;;;4687565;30;20246;-87
2021/09/22 03:31:29;;;;;;;2.05;1.95;;;;;;;;;;4689725;30;20695;-85
2021/09/22 03:34:16;;;;;;;2.80;2.60;;;;;;;;;;4698342;30;20211;-83
2021/09/22 03:36:46;;;;;;;3.20;2.50;;;;;;;;;;4700487;30;20222;-84
2021/09/22 03:39:14;;;;;;;2.35;2.15;;;;;;;;;;4700429;30;20198;-84
2021/09/22 03:41:42;;;;;;;1.95;1.83;;;;;;;;;;4700339;30;20238;-84
2021/09/22 03:44:22;;;;;;;1.73;1.63;;;;;;;;;;4700498;30;20207;-83
2021/09/22 03:46:57;;;;;;;1.90;1.80;;;;;;;;;;4699822;30;20199;-84
2021/09/22 03:49:26;;;;;;;2.40;2.20;;;;;;;;;;4700485;30;20212;-84
2021/09/22 03:52:05;;;;;;;2.20;2.00;;;;;;;;;;4700448;30;20698;-84
2021/09/22 03:54:32;;;;;;;2.20;1.80;;;;;;;;;;4701858;30;20203;-86
2021/09/22 03:57:00;;;;;;;1.23;1.23;;;;;;;;;;4699661;30;20194;-86
2021/09/22 03:59:27;;;;;;;2.25;2.05;;;;;;;;;;4699542;30;20199;-86
2021/09/22 04:01:56;;;;;;;1.73;1.63;;;;;;;;;;4699712;30;20231;-86
2021/09/22 04:04:24;;;;;;;1.70;1.60;;;;;;;;;;4699841;30;20217;-86
2021/09/22 04:06:51;;;;;;;1.80;1.70;;;;;;;;;;4699776;30;20201;-86
2021/09/22 04:09:19;;;;;;;1.92;1.80;;;;;;;;;;4699437;30;20214;-85
2021/09/22 04:11:46;;;;;;;2.05;1.95;;;;;;;;;;4696926;30;20310;-85
2021/09/22 04:14:14;;;;;;;1.60;1.50;;;;;;;;;;4698723;30;20852;-86
2021/09/22 04:16:41;;;;;;;1.88;1.77;;;;;;;;;;4699024;30;20225;-85
2021/09/22 04:19:10;;;;;;;1.80;1.70;;;;;;;;;;4698954;30;20231;-86
2021/09/22 04:21:37;;;;;;;1.90;1.80;;;;;;;;;;4682527;30;20238;-86
2021/09/22 04:24:06;;;;;;;1.80;1.70;;;;;;;;;;4682341;30;20215;-84
2021/09/22 04:26:34;;;;;;;2.00;1.80;;;;;;;;;;4698955;30;20389;-86
2021/09/22 04:29:01;;;;;;;1.90;1.80;;;;;;;;;;4699313;30;20234;-86
2021/09/22 04:31:29;;;;;;;1.77;1.67;;;;;;;;;;4683442;30;21061;-86
2021/09/22 04:33:58;;;;;;;1.98;1.88;;;;;;;;;;4681669;30;20225;-85
2021/09/22 04:36:28;;;;;;;2.67;2.47;;;;;;;;;;4682195;30;20259;-85
2021/09/22 04:38:55;;;;;;;2.88;2.65;;;;;;;;;;4682088;30;20235;-86
2021/09/22 04:41:23;;;;;;;2.50;2.30;;;;;;;;;;4681633;30;20329;-85
2021/09/22 04:43:51;;;;;;;2.78;2.58;;;;;;;;;;4683973;30;20293;-87
2021/09/22 04:46:18;;;;;;;2.28;2.10;;;;;;;;;;4698616;30;20787;-89
2021/09/22 04:48:46;;;;;;;3.00;2.80;;;;;;;;;;4685442;30;20326;-87
2021/09/22 04:51:14;;;;;;;2.28;2.08;;;;;;;;;;4681968;30;20274;-88
2021/09/22 04:53:43;;;;;;;1.80;1.70;;;;;;;;;;4682167;30;20211;-87
2021/09/22 04:56:10;;;;;;;2.55;2.35;;;;;;;;;;4681970;30;20258;-88
2021/09/22 04:58:38;;;;;;;1.85;1.75;;;;;;;;;;4685136;30;20248;-88
2021/09/22 05:04:13;;;;;;;2.30;2.15;;;;;;;;;;4698079;30;20302;-87
2021/09/22 05:06:41;;;;;;;1.90;1.80;;;;;;;;;;4698042;30;20221;-86
2021/09/22 05:09:10;;;;;;;1.90;1.80;;;;;;;;;;4698247;30;20249;-86
2021/09/22 05:11:37;;;;;;;2.10;1.83;;;;;;;;;;4698579;30;20217;-83
2021/09/22 05:14:05;;;;;;;1.95;1.80;;;;;;;;;;4698882;30;20654;-85
2021/09/22 05:16:32;;;;;;;1.70;1.60;;;;;;;;;;4694090;30;20207;-85
2021/09/22 05:18:59;;;;;;;2.00;1.88;;;;;;;;;;4690805;30;20731;-87
2021/09/22 05:21:27;;;;;;;2.38;2.17;;;;;;;;;;4698481;30;20222;-86
2021/09/22 05:23:54;;;;;;;1.98;1.88;;;;;;;;;;4705139;30;20214;-87
2021/09/22 05:26:23;;;;;;;2.58;2.38;;;;;;;;;;4692336;30;20191;-86
2021/09/22 05:28:50;;;;;;;2.85;2.30;;;;;;;;;;4693912;30;20234;-86
2021/09/22 05:31:18;;;;;;;2.38;2.10;;;;;;;;;;4690407;30;20207;-88
2021/09/22 05:33:47;;;;;;;2.38;2.17;;;;;;;;;;4696625;30;20234;-89
2021/09/22 05:36:15;;;;;;;2.30;2.03;;;;;;;;;;4698456;30;20572;-87
2021/09/22 05:38:48;;;;;;;2.13;1.92;;;;;;;;;;4695402;30;20242;-88
2021/09/22 05:41:18;;;;;;;2.13;1.98;;;;;;;;;;4697845;30;20218;-84
2021/09/22 05:43:46;;;;;;;2.35;2.15;;;;;;;;;;4684510;30;20219;-86
2021/09/22 05:46:14;;;;;;;1.90;1.80;;;;;;;;;;4684512;30;20199;-85
2021/09/22 05:48:41;;;;;;;2.42;2.10;;;;;;;;;;4684308;30;20231;-86
2021/09/22 05:51:09;;;;;;;2.42;2.22;;;;;;;;;;4684330;30;20211;-85
2021/09/22 05:53:36;;;;;;;2.47;2.28;;;;;;;;;;4682237;30;20218;-87
2021/09/22 05:56:04;;;;;;;2.50;2.30;;;;;;;;;;4675701;30;20577;-86
2021/09/22 05:58:38;;;;;;;2.70;2.50;;;;;;;;;;4677739;30;20381;-87
2021/09/22 06:01:10;;;;;;;2.60;2.40;;;;;;;;;;4682763;30;20268;-86
2021/09/22 06:03:38;;;;;;;3.05;2.33;;;;;;;;;;4683063;30;20238;-86
2021/09/22 06:06:06;;;;;;;2.28;2.08;;;;;;;;;;4679765;30;20207;-86
2021/09/22 06:08:33;;;;;;;1.65;1.55;;;;;;;;;;4667771;30;20345;-86
2021/09/22 06:11:01;;;;;;;2.03;1.92;;;;;;;;;;4671388;30;20207;-86
2021/09/22 06:13:29;;;;;;;2.20;2.10;;;;;;;;;;4678059;30;20258;-86
2021/09/22 06:15:57;;;;;;;2.20;2.00;;;;;;;;;;4684391;30;20203;-86
2021/09/22 06:18:25;;;;;;;2.47;2.30;;;;;;;;;;4684073;30;20239;-86
2021/09/22 06:20:53;;;;;;;2.03;1.92;;;;;;;;;;4677650;30;20215;-86
2021/09/22 06:23:20;;;;;;;2.60;2.40;;;;;;;;;;4680987;30;20229;-85
2021/09/22 06:25:48;;;;;;;2.42;2.22;;;;;;;;;;4683830;30;20223;-86
2021/09/22 06:28:15;;;;;;;3.03;2.00;;;;;;;;;;4679768;30;20246;-86
2021/09/22 06:30:42;;;;;;;2.08;1.88;;;;;;;;;;4683788;30;20199;-86
2021/09/22 06:33:10;;;;;;;2.15;1.95;;;;;;;;;;4682557;30;20234;-85
2021/09/22 06:35:39;;;;;;;2.13;1.95;;;;;;;;;;4675880;30;20567;-85
2021/09/22 06:38:07;;;;;;;2.88;2.47;;;;;;;;;;4666664;30;20246;-86
2021/09/22 06:40:34;;;;;;;3.83;2.60;;;;;;;;;;4677156;30;20580;-86
2021/09/22 06:43:03;;;;;;;2.47;2.28;;;;;;;;;;4695967;30;20249;-86
2021/09/22 06:45:31;;;;;;;1.98;1.88;;;;;;;;;;4701135;30;20195;-87
2021/09/22 06:47:58;;;;;;;3.47;2.42;;;;;;;;;;4692360;30;20231;-86
2021/09/22 06:50:27;;;;;;;3.42;3.13;;;;;;;;;;4683542;30;20204;-86
2021/09/22 06:52:55;;;;;;;2.83;2.60;;;;;;;;;;4683468;30;20585;-85
2021/09/22 06:55:23;;;;;;;2.35;2.22;;;;;;;;;;4697972;30;20209;-86
2021/09/22 06:57:50;;;;;;;3.50;3.20;;;;;;;;;;4685966;30;20242;-86
2021/09/22 07:00:19;;;;;;;3.58;3.35;;;;;;;;;;4698136;30;20207;-86
2021/09/22 07:02:46;;;;;;;3.10;2.80;;;;;;;;;;4682768;30;20261;-85
2021/09/22 07:05:16;;;;;;;3.70;3.33;;;;;;;;;;4683523;30;20200;-85
2021/09/22 07:07:46;;;;;;;3.40;3.05;;;;;;;;;;4695890;30;20324;-86
2021/09/22 07:10:18;;;;;;;3.53;2.95;;;;;;;;;;4683724;30;20250;-85
2021/09/22 07:12:47;;;;;;;2.67;2.42;;;;;;;;;;4683485;30;20223;-86
2021/09/22 07:15:15;;;;;;;3.15;2.85;;;;;;;;;;4683484;30;20285;-86
2021/09/22 07:17:42;;;;;;;2.95;2.60;;;;;;;;;;4683565;30;20238;-85
2021/09/22 07:20:12;;;;;;;4.10;2.80;;;;;;;;;;4691044;30;20214;-85
2021/09/22 07:22:40;;;;;;;3.42;3.10;;;;;;;;;;4700634;30;20194;-86
2021/09/22 07:25:09;;;;;;;3.08;2.80;;;;;;;;;;4700869;30;20211;-87
2021/09/22 07:27:40;;;;;;;3.45;2.70;;;;;;;;;;4700401;30;20242;-86
2021/09/22 07:30:13;;;;;;;3.33;3.03;;;;;;;;;;4700531;30;20214;-85
2021/09/22 07:32:41;;;;;;;2.78;2.58;;;;;;;;;;4700492;30;20206;-86
2021/09/22 07:35:09;;;;;;;3.50;3.20;;;;;;;;;;4700516;30;20206;-86
2021/09/22 07:37:37;;;;;;;3.17;2.88;;;;;;;;;;4700330;30;20231;-86
2021/09/22 07:40:05;;;;;;;3.35;3.03;;;;;;;;;;4701248;30;20198;-85
2021/09/22 07:42:33;;;;;;;2.70;2.50;;;;;;;;;;4700344;30;20722;-86
2021/09/22 07:45:06;;;;;;;2.78;2.58;;;;;;;;;;4699972;30;20234;-86
2021/09/22 07:47:33;;;;;;;2.88;2.67;;;;;;;;;;4700081;30;20238;-85
2021/09/22 07:50:01;;;;;;;3.28;2.97;;;;;;;;;;4699996;30;20221;-86
2021/09/22 07:52:28;;;;;;;2.80;2.58;;;;;;;;;;4700394;30;20202;-87
2021/09/22 07:54:56;;;;;;;2.97;2.78;;;;;;;;;;4699783;30;20211;-87
2021/09/22 07:57:24;;;;;;;3.47;3.17;;;;;;;;;;4699478;30;20234;-87
2021/09/22 07:59:52;;;;;;;3.58;3.20;;;;;;;;;;4700009;30;20222;-85
2021/09/22 08:02:21;;;;;;;3.35;3.03;;;;;;;;;;4699805;30;20210;-85
2021/09/22 08:04:48;;;;;;;3.13;2.83;;;;;;;;;;4698848;30;20606;-85
2021/09/22 08:07:17;;;;;;;4.00;3.53;;;;;;;;;;4699787;30;20253;-87
2021/09/22 08:09:44;;;;;;;4.22;3.83;;;;;;;;;;4699790;30;20213;-87
2021/09/22 08:12:12;;;;;;;4.07;3.63;;;;;;;;;;4699836;30;20573;-85
2021/09/22 08:14:40;;;;;;;4.65;3.88;;;;;;;;;;4699504;30;20199;-84
2021/09/22 08:17:11;;;;;;;4.05;3.65;;;;;;;;;;4699688;30;20241;-84
2021/09/22 08:19:39;;;;;;;5.13;4.45;;;;;;;;;;4699419;30;20829;-86
2021/09/22 08:22:07;;;;;;;4.03;3.63;;;;;;;;;;4699618;30;20199;-86
2021/09/22 08:24:35;;;;;;;3.40;3.15;;;;;;;;;;4699307;30;20223;-87
2021/09/22 08:27:04;;;;;;;4.38;3.80;;;;;;;;;;4698415;30;20568;-85
2021/09/22 08:29:32;;;;;;;5.13;4.03;;;;;;;;;;4699585;30;20203;-85
2021/09/22 08:31:59;;;;;;;5.32;4.82;;;;;;;;;;4698588;30;20206;-84
2021/09/22 08:34:27;;;;;;;3.92;3.53;;;;;;;;;;4698823;30;20687;-83
2021/09/22 08:36:56;;;;;;;4.15;3.75;;;;;;;;;;4688651;30;20573;-85
2021/09/22 08:39:23;;;;;;;3.55;3.10;;;;;;;;;;4682083;30;20207;-85
2021/09/22 08:41:51;;;;;;;3.65;3.35;;;;;;;;;;4681872;30;20243;-85
2021/09/22 08:44:19;;;;;;;5.65;4.60;;;;;;;;;;4682098;30;20238;-85
2021/09/22 08:46:47;;;;;;;4.78;4.20;;;;;;;;;;4681917;30;20203;-85
2021/09/22 08:49:16;;;;;;;5.88;5.22;;;;;;;;;;4684817;30;20206;-84
2021/09/22 08:51:45;;;;;;;4.25;3.85;;;;;;;;;;4699754;30;20214;-85
2021/09/22 08:54:14;;;;;;;5.80;5.30;;;;;;;;;;4699748;30;20218;-84
2021/09/22 08:56:44;;;;;;;6.55;5.15;;;;;;;;;;4699197;30;20206;-84
2021/09/22 08:59:15;;;;;;;6.65;4.55;;;;;;;;;;4699179;30;20191;-85
2021/09/22 09:01:43;;;;;;;5.32;4.82;;;;;;;;;;4699205;30;20258;-84
2021/09/22 09:04:16;;;;;;;6.07;5.47;;;;;;;;;;4699345;30;20229;-85
2021/09/22 09:06:44;;;;;;;5.53;4.70;;;;;;;;;;4699117;30;20678;-86
2021/09/22 09:10:13;;;;;;;5.97;4.65;;;;;;;;;;4699494;30;20198;-88
2021/09/22 09:12:42;;;;;;;5.00;3.97;;;;;;;;;;4699181;30;20221;-86
2021/09/22 09:15:25;;;;;;;4.28;3.80;;;;;;;;;;4699275;30;20214;-88
2021/09/22 09:17:59;;;;;;;6.38;5.72;;;;;;;;;;4699350;30;20315;-87
2021/09/22 09:20:29;;;;;;;4.38;3.97;;;;;;;;;;4686812;30;20270;-87
2021/09/22 09:23:08;;;;;;;4.30;4.00;;;;;;;;;;4684382;30;20204;-88
2021/09/22 09:25:41;;;;;;;5.10;3.53;;;;;;;;;;4684335;30;20231;-88
2021/09/22 09:28:26;;;;;;;6.45;4.15;;;;;;;;;;4685137;30;20243;-89
2021/09/22 09:30:58;;;;;;;4.07;3.67;;;;;;;;;;4685028;30;20230;-88
2021/09/22 09:33:38;;;;;;;5.30;4.38;;;;;;;;;;4685296;30;20214;-88
2021/09/22 09:36:29;;;;;;;5.57;5.03;;;;;;;;;;4685029;30;20207;-88
2021/09/22 09:39:07;;;;;;;7.45;4.53;;;;;;;;;;4684931;30;20600;-88
2021/09/22 09:41:48;;;;;;;5.50;4.60;;;;;;;;;;4684715;30;20208;-89
2021/09/22 09:44:21;;;;;;;6.07;5.43;;;;;;;;;;4684611;30;20775;-88
2021/09/22 09:46:51;;;;;;;5.70;4.75;;;;;;;;;;4685211;30;20211;-89
2021/09/22 09:49:23;;;;;;;6.18;5.57;;;;;;;;;;4684472;30;20703;-88
2021/09/22 09:51:55;;;;;;;8.50;5.88;;;;;;;;;;4684810;30;20218;-89
2021/09/22 09:54:24;;;;;;;8.55;6.60;;;;;;;;;;4684538;30;20595;-88
2021/09/22 09:56:54;;;;;;;5.90;4.80;;;;;;;;;;4684343;30;20628;-88
2021/09/22 09:59:25;;;;;;;8.05;6.82;;;;;;;;;;4684511;30;20599;-88
2021/09/22 10:01:55;;;;;;;8.77;6.65;;;;;;;;;;4684593;30;20221;-88
2021/09/22 10:04:25;;;;;;;7.28;6.15;;;;;;;;;;4684416;30;20222;-88
2021/09/22 10:06:55;;;;;;;8.98;6.03;;;;;;;;;;4684316;30;20230;-88
2021/09/22 10:09:22;;;;;;;5.97;5.28;;;;;;;;;;4684257;30;20192;-88
2021/09/22 10:11:50;;;;;;;6.53;5.80;;;;;;;;;;4684444;30;20207;-88
2021/09/22 10:14:19;;;;;;;6.82;6.05;;;;;;;;;;4684430;30;20211;-88
2021/09/22 10:16:52;;;;;;;4.65;4.25;;;;;;;;;;4684263;30;20574;-89
2021/09/22 10:19:19;;;;;;;4.47;4.07;;;;;;;;;;4684328;30;20218;-88
2021/09/22 10:21:47;;;;;;;8.27;6.05;;;;;;;;;;4684133;30;20192;-88
2021/09/22 10:24:14;;;;;;;6.45;5.18;;;;;;;;;;4684269;30;20215;-87
2021/09/22 10:26:42;;;;;;;7.03;6.25;;;;;;;;;;4683876;30;20251;-89
2021/09/22 10:29:27;;;;;;;7.80;6.45;;;;;;;;;;4683466;30;20851;-88
2021/09/22 10:31:58;;;;;;;7.20;5.97;;;;;;;;;;4684073;30;20226;-88
2021/09/22 10:34:29;;;;;;;5.00;4.60;;;;;;;;;;4683862;30;20221;-89
2021/09/22 10:36:57;;;;;;;4.25;3.78;;;;;;;;;;4683803;30;20223;-89
2021/09/22 10:39:39;;;;;;;4.18;3.60;;;;;;;;;;4683784;30;20237;-88
2021/09/22 10:42:28;;;;;;;5.80;5.18;;;;;;;;;;4683824;30;20677;-87
2021/09/22 10:45:18;;;;;;;8.20;6.10;;;;;;;;;;4683609;30;20722;-88
2021/09/22 10:47:48;;;;;;;4.50;4.18;;;;;;;;;;4683773;30;20715;-89
2021/09/22 10:50:54;;;;;;;6.07;5.47;;;;;;;;;;4683809;30;20232;-88
2021/09/22 10:53:36;;;;;;;7.20;6.43;;;;;;;;;;4683541;30;20709;-87
2021/09/22 10:56:06;;;;;;;6.00;5.40;;;;;;;;;;4684048;30;20699;-87
2021/09/22 10:58:36;;;;;;;6.70;5.63;;;;;;;;;;4683731;30;20235;-89
2021/09/22 11:01:04;;;;;;;8.00;6.10;;;;;;;;;;4683819;30;20219;-89
2021/09/22 11:04:00;;;;;;;7.65;6.22;;;;;;;;;;4683677;30;20213;-88
2021/09/22 11:06:55;;;;;;;6.13;5.63;;;;;;;;;;4683292;30;20249;-88
2021/09/22 11:09:36;;;;;;;8.30;5.80;;;;;;;;;;4683304;30;20218;-89
2021/09/22 11:12:16;;;;;;;4.38;3.97;;;;;;;;;;4683588;30;20572;-89
2021/09/22 11:14:51;;;;;;;4.38;4.00;;;;;;;;;;4683514;30;20223;-88
2021/09/22 11:17:24;;;;;;;6.53;5.93;;;;;;;;;;4683596;30;20696;-87
2021/09/22 11:19:55;;;;;;;6.22;5.63;;;;;;;;;;4683361;30;20219;-88
2021/09/22 11:22:24;;;;;;;5.47;4.30;;;;;;;;;;4683234;30;20200;-88
2021/09/22 11:24:54;;;;;;;4.05;3.75;;;;;;;;;;4683033;30;20201;-89
2021/09/22 11:27:23;;;;;;;3.60;3.25;;;;;;;;;;4683053;30;20239;-87
2021/09/22 11:29:53;;;;;;;4.75;4.35;;;;;;;;;;4683136;30;20245;-89
2021/09/22 11:32:29;;;;;;;6.22;5.63;;;;;;;;;;4683099;30;20215;-89
2021/09/22 11:35:00;;;;;;;3.65;3.35;;;;;;;;;;4682893;30;20710;-88
2021/09/22 11:37:34;;;;;;;5.93;4.72;;;;;;;;;;4682756;30;20722;-89
2021/09/22 11:40:15;;;;;;;5.65;4.95;;;;;;;;;;4682111;30;20661;-89
2021/09/22 11:42:56;;;;;;;3.35;3.05;;;;;;;;;;4685870;30;20241;-88
2021/09/22 11:45:24;;;;;;;3.13;2.88;;;;;;;;;;4697932;30;20226;-86
2021/09/22 11:47:52;;;;;;;5.10;4.60;;;;;;;;;;4697629;30;20329;-85
2021/09/22 11:50:35;;;;;;;3.85;3.55;;;;;;;;;;4697470;30;20218;-87
2021/09/22 11:53:09;;;;;;;4.95;4.45;;;;;;;;;;4698108;30;20257;-90
2021/09/22 11:55:38;;;;;;;6.15;5.55;;;;;;;;;;4698839;30;20203;-89
2021/09/22 11:58:05;;;;;;;6.03;5.43;;;;;;;;;;4698258;30;20251;-89
2021/09/22 12:00:33;;;;;;;4.97;4.47;;;;;;;;;;4699109;30;20222;-90
2021/09/22 12:03:01;;;;;;;5.80;5.22;;;;;;;;;;4698680;30;20217;-88
2021/09/22 12:05:29;;;;;;;5.50;5.00;;;;;;;;;;4697955;30;20578;-88
2021/09/22 12:07:57;;;;;;;5.35;4.95;;;;;;;;;;4697575;30;20234;-88
2021/09/22 12:10:25;;;;;;;4.53;3.92;;;;;;;;;;4698095;30;20218;-87
2021/09/22 12:12:58;;;;;;;3.67;3.40;;;;;;;;;;4692807;30;20615;-89
2021/09/22 12:15:25;;;;;;;6.43;5.82;;;;;;;;;;4681234;30;20230;-87
2021/09/22 12:17:53;;;;;;;5.32;4.82;;;;;;;;;;4680818;30;20724;-88
2021/09/22 12:20:21;;;;;;;6.00;5.45;;;;;;;;;;4680801;30;20239;-87
2021/09/22 12:23:02;;;;;;;6.15;5.55;;;;;;;;;;4681038;30;20660;-89
2021/09/22 12:25:31;;;;;;;5.75;5.15;;;;;;;;;;4681318;30;20215;-89
2021/09/22 12:28:00;;;;;;;4.55;4.05;;;;;;;;;;4681383;30;20235;-89
2021/09/22 12:30:33;;;;;;;3.92;3.63;;;;;;;;;;4681105;30;20210;-90
2021/09/22 12:33:03;;;;;;;3.65;2.90;;;;;;;;;;4681197;30;20250;-89
2021/09/22 12:35:32;;;;;;;3.97;3.55;;;;;;;;;;4681441;30;20221;-88
2021/09/22 12:38:04;;;;;;;3.38;3.08;;;;;;;;;;4680747;30;20247;-87
2021/09/22 12:40:35;;;;;;;4.07;3.55;;;;;;;;;;4681559;30;20223;-87
2021/09/22 12:43:06;;;;;;;4.53;4.13;;;;;;;;;;4680634;30;20246;-86
2021/09/22 12:45:35;;;;;;;6.47;4.22;;;;;;;;;;4679568;30;20211;-88
2021/09/22 12:48:06;;;;;;;4.55;4.15;;;;;;;;;;4679248;30;20590;-87
2021/09/22 12:50:35;;;;;;;4.50;4.10;;;;;;;;;;4680364;30;20223;-89
2021/09/22 12:53:14;;;;;;;5.15;4.68;;;;;;;;;;4685553;30;20241;-90
2021/09/22 12:55:44;;;;;;;6.75;4.65;;;;;;;;;;4686181;30;20214;-89
2021/09/22 12:58:14;;;;;;;5.18;4.72;;;;;;;;;;4686088;30;20243;-88
2021/09/22 13:00:52;;;;;;;8.15;5.95;;;;;;;;;;4686090;30;20214;-88
2021/09/22 13:03:26;;;;;;;4.75;4.25;;;;;;;;;;4693079;30;20212;-88
2021/09/22 13:05:56;;;;;;;4.93;3.95;;;;;;;;;;4702420;30;20225;-88
2021/09/22 13:08:27;;;;;;;4.20;3.90;;;;;;;;;;4703252;30;20237;-87
2021/09/22 13:11:03;;;;;;;3.72;3.42;;;;;;;;;;4702609;30;20217;-88
2021/09/22 13:13:50;;;;;;;3.40;3.10;;;;;;;;;;4702332;30;20202;-88
2021/09/22 13:16:32;;;;;;;3.72;3.40;;;;;;;;;;4702672;30;20213;-89
2021/09/22 13:19:03;;;;;;;3.08;2.83;;;;;;;;;;4703472;30;20241;-89
2021/09/22 13:21:31;;;;;;;3.20;2.92;;;;;;;;;;4702953;30;20683;-88
2021/09/22 13:24:03;;;;;;;2.50;2.22;;;;;;;;;;4703207;30;20240;-89
2021/09/22 13:26:31;;;;;;;3.25;2.95;;;;;;;;;;4702279;30;20316;-89
2021/09/22 13:29:02;;;;;;;3.70;3.50;;;;;;;;;;4702560;30;20234;-89
2021/09/22 13:31:31;;;;;;;4.00;3.60;;;;;;;;;;4702432;30;20210;-90
2021/09/22 13:33:59;;;;;;;4.50;4.10;;;;;;;;;;4704070;30;20211;-88
2021/09/22 13:36:28;;;;;;;3.83;3.25;;;;;;;;;;4704201;30;20233;-90
2021/09/22 13:38:59;;;;;;;3.40;3.10;;;;;;;;;;4703445;30;20280;-90
2021/09/22 13:41:28;;;;;;;2.35;2.20;;;;;;;;;;4704605;30;20205;-89
2021/09/22 13:43:58;;;;;;;2.78;2.58;;;;;;;;;;4704851;30;20214;-88
2021/09/22 13:46:32;;;;;;;6.15;3.53;;;;;;;;;;4704809;30;20212;-90
2021/09/22 13:49:12;;;;;;;3.33;2.95;;;;;;;;;;4705138;30;20242;-88
2021/09/22 13:51:50;;;;;;;2.22;2.13;;;;;;;;;;4704894;30;20202;-87
2021/09/22 13:54:26;;;;;;;2.78;2.58;;;;;;;;;;4701360;30;20222;-88
2021/09/22 13:56:58;;;;;;;2.88;2.67;;;;;;;;;;4704560;30;20296;-87
2021/09/22 13:59:27;;;;;;;2.95;2.75;;;;;;;;;;4719257;30;20647;-89
2021/09/22 14:02:02;;;;;;;3.47;3.13;;;;;;;;;;4721245;30;20190;-90
2021/09/22 14:04:34;;;;;;;3.00;2.75;;;;;;;;;;4719152;30;20194;-88
2021/09/22 14:07:21;;;;;;;5.55;3.40;;;;;;;;;;4719270;30;20237;-89
2021/09/22 14:09:55;;;;;;;2.70;2.50;;;;;;;;;;4719210;30;20702;-88
2021/09/22 14:12:33;;;;;;;3.72;3.25;;;;;;;;;;4711129;30;20199;-91
2021/09/22 14:15:16;;;;;;;2.85;2.65;;;;;;;;;;4701875;30;20229;-91
2021/09/22 14:18:06;;;;;;;3.28;2.97;;;;;;;;;;4701860;30;20253;-90
2021/09/22 14:20:53;;;;;;;5.07;3.03;;;;;;;;;;4702173;30;20217;-91
2021/09/22 14:23:30;;;;;;;3.38;3.10;;;;;;;;;;4701910;30;20214;-92
2021/09/22 14:26:08;;;;;;;2.20;2.00;;;;;;;;;;4701858;30;20229;-91
2021/09/22 14:29:26;;;;;;;2.55;2.35;;;;;;;;;;4701572;30;20238;-92
2021/09/22 14:32:06;;;;;;;2.28;2.17;;;;;;;;;;4701873;30;20586;-92
2021/09/22 14:34:33;;;;;;;2.60;2.40;;;;;;;;;;4702054;30;20217;-92
2021/09/22 14:37:04;;;;;;;2.10;1.92;;;;;;;;;;4701760;30;20298;-91
2021/09/22 14:40:12;;;;;;;1.95;1.80;;;;;;;;;;4701731;30;20575;-91
2021/09/22 14:42:43;;;;;;;3.65;2.20;;;;;;;;;;4693015;30;20234;-90
2021/09/22 14:45:20;;;;;;;2.25;2.05;;;;;;;;;;4701468;30;20225;-91
2021/09/22 14:47:50;;;;;;;2.35;2.17;;;;;;;;;;4701381;30;20321;-91
2021/09/22 14:50:23;;;;;;;2.25;2.15;;;;;;;;;;4701294;30;20207;-91
2021/09/22 14:52:55;;;;;;;3.08;1.98;;;;;;;;;;4701237;30;20222;-92
2021/09/22 14:55:23;;;;;;;2.53;2.33;;;;;;;;;;4701720;30;20210;-90
2021/09/22 14:57:54;;;;;;;2.15;1.95;;;;;;;;;;4700958;30;20708;-91
2021/09/22 15:00:24;;;;;;;3.90;2.72;;;;;;;;;;4701468;30;20218;-91
2021/09/22 15:02:53;;;;;;;3.17;2.80;;;;;;;;;;4701103;30;20237;-91
2021/09/22 15:05:24;;;;;;;2.22;2.03;;;;;;;;;;4701258;30;20211;-89
2021/09/22 15:08:00;;;;;;;1.90;1.80;;;;;;;;;;4701225;30;20317;-92
2021/09/22 15:10:28;;;;;;;1.85;1.63;;;;;;;;;;4701248;30;20229;-91
2021/09/22 15:12:58;;;;;;;1.77;1.67;;;;;;;;;;4700873;30;20225;-90
2021/09/22 15:15:27;;;;;;;1.83;1.73;;;;;;;;;;4700890;30;20696;-91
2021/09/22 15:17:56;;;;;;;1.80;1.70;;;;;;;;;;4700471;30;20749;-91
2021/09/22 15:20:24;;;;;;;2.30;2.10;;;;;;;;;;4700555;30;20199;-91